createdAt,value
2023-04-24T00:01:54.637Z,99438.91
2023-04-24T00:04:21.773Z,99444.66
2023-04-24T00:06:50.236Z,99451.34
2023-04-24T00:09:19.326Z,99453.31
2023-04-24T00:11:47.276Z,99453.75
2023-04-24T00:14:14.620Z,99457.28
2023-04-24T00:16:41.669Z,99456.09
2023-04-24T00:19:09.959Z,99453.38
2023-04-24T00:21:37.506Z,99461.13
2023-04-24T00:24:05.325Z,99452.97
2023-04-24T00:26:34.581Z,99451.78
2023-04-24T00:29:02.505Z,99458.00
2023-04-24T00:31:29.605Z,99461.88
2023-04-24T00:33:57.226Z,99454.78
2023-04-24T00:36:24.772Z,99459.81
2023-04-24T00:38:52.382Z,99457.72
2023-04-24T00:41:20.329Z,99456.94
2023-04-24T00:43:49.917Z,99454.44
2023-04-24T00:46:18.169Z,99468.69
2023-04-24T00:48:47.313Z,99474.34
2023-04-24T00:51:15.293Z,99476.72
2023-04-24T00:53:42.977Z,99480.88
2023-04-24T00:56:12.236Z,99477.28
2023-04-24T00:58:40.028Z,99470.66
2023-04-24T01:01:10.970Z,99470.22
2023-04-24T01:03:39.248Z,99471.63
2023-04-24T01:06:08.659Z,99475.69
2023-04-24T01:08:37.847Z,99481.97
2023-04-24T01:11:05.751Z,99483.06
2023-04-24T01:13:34.266Z,99484.16
2023-04-24T01:16:02.663Z,99491.50
2023-04-24T01:18:32.788Z,99502.16
2023-04-24T01:21:04.488Z,99504.47
2023-04-24T01:23:34.053Z,99503.22
2023-04-24T01:26:01.141Z,99504.88
2023-04-24T01:28:29.136Z,99507.84
2023-04-24T01:30:56.930Z,99519.34
2023-04-24T01:33:24.969Z,99509.72
2023-04-24T01:35:53.389Z,99518.09
2023-04-24T01:38:20.566Z,99514.09
2023-04-24T01:40:50.793Z,99519.56
2023-04-24T01:43:18.977Z,99519.16
2023-04-24T01:45:47.860Z,99522.91
2023-04-24T01:48:15.502Z,99522.72
2023-04-24T01:50:42.681Z,99515.59
2023-04-24T01:53:10.604Z,99511.63
2023-04-24T01:55:38.974Z,99520.16
2023-04-24T01:58:07.698Z,99517.03
2023-04-24T02:00:36.092Z,99519.56
2023-04-24T02:03:03.742Z,99519.13
2023-04-24T02:05:31.384Z,99517.44
2023-04-24T02:07:59.619Z,99518.31
2023-04-24T02:10:27.520Z,99523.72
2023-04-24T02:12:54.987Z,99523.78
2023-04-24T02:15:24.800Z,99531.09
2023-04-24T02:17:52.772Z,99529.63
2023-04-24T02:20:20.532Z,99532.53
2023-04-24T02:22:48.127Z,99536.72
2023-04-24T02:25:15.467Z,99535.47
2023-04-24T02:27:45.153Z,99540.75
2023-04-24T02:30:13.055Z,99537.81
2023-04-24T02:32:42.625Z,99550.81
2023-04-24T02:35:10.793Z,99550.59
2023-04-24T02:37:38.251Z,99540.06
2023-04-24T02:40:06.778Z,99550.13
2023-04-24T02:42:35.591Z,99550.97
2023-04-24T02:45:03.481Z,99553.06
2023-04-24T02:47:31.432Z,99555.19
2023-04-24T02:50:01.158Z,99555.97
2023-04-24T02:52:28.847Z,99560.38
2023-04-24T02:54:56.429Z,99566.91
2023-04-24T02:57:24.108Z,99572.53
2023-04-24T02:59:51.822Z,99571.06
2023-04-24T03:02:21.675Z,99569.59
2023-04-24T03:04:49.452Z,99570.03
2023-04-24T03:07:18.431Z,99576.31
2023-04-24T03:09:45.926Z,99573.81
2023-04-24T03:12:13.801Z,99581.13
2023-04-24T03:14:40.956Z,99581.97
2023-04-24T03:17:08.715Z,99584.03
2023-04-24T03:19:36.199Z,99592.03
2023-04-24T03:22:04.026Z,99595.59
2023-04-24T03:24:33.994Z,99590.78
2023-04-24T03:27:01.927Z,99599.19
2023-04-24T03:29:30.377Z,99597.09
2023-04-24T03:31:58.266Z,99598.13
2023-04-24T03:34:26.208Z,99597.91
2023-04-24T03:36:53.948Z,99600.44
2023-04-24T03:39:21.577Z,99593.31
2023-04-24T03:41:50.799Z,99605.44
2023-04-24T03:44:19.327Z,99607.97
2023-04-24T03:46:47.024Z,99592.91
2023-04-24T03:49:15.142Z,99597.28
2023-04-24T03:51:42.524Z,99593.34
2023-04-24T03:54:10.546Z,99592.06
2023-04-24T03:56:38.607Z,99598.53
2023-04-24T03:59:07.819Z,99605.91
2023-04-24T04:01:35.776Z,99607.75
2023-04-24T04:04:03.438Z,99610.91
2023-04-24T04:06:31.218Z,99613.44
2023-04-24T04:08:58.845Z,99611.75
2023-04-24T04:11:26.796Z,99614.69
2023-04-24T04:13:55.011Z,99618.03
2023-04-24T04:16:24.489Z,99614.06
2023-04-24T04:18:53.551Z,99620.75
2023-04-24T04:21:20.955Z,99622.63
2023-04-24T04:23:48.615Z,99625.38
2023-04-24T04:26:15.723Z,99619.72
2023-04-24T04:28:43.563Z,99621.38
2023-04-24T04:31:11.616Z,99629.16
2023-04-24T04:33:40.806Z,99633.72
2023-04-24T04:36:08.637Z,99628.84
2023-04-24T04:38:36.512Z,99635.78
2023-04-24T04:41:04.273Z,99627.81
2023-04-24T04:43:31.789Z,99641.00
2023-04-24T04:45:59.930Z,99636.84
2023-04-24T04:48:27.611Z,99643.94
2023-04-24T04:50:57.235Z,99647.31
2023-04-24T04:53:25.842Z,99654.06
2023-04-24T04:55:55.255Z,99648.19
2023-04-24T04:58:22.866Z,99651.34
2023-04-24T05:00:50.506Z,99665.19
2023-04-24T05:03:21.132Z,99670.84
2023-04-24T05:05:49.212Z,99672.53
2023-04-24T05:08:27.095Z,99670.22
2023-04-24T05:10:55.581Z,99670.84
2023-04-24T05:13:35.557Z,99676.94
2023-04-24T05:16:07.886Z,99673.34
2023-04-24T05:18:35.743Z,99677.53
2023-04-24T05:21:03.537Z,99675.03
2023-04-24T05:23:31.728Z,99682.38
2023-04-24T05:25:59.433Z,99679.44
2023-04-24T05:28:26.209Z,99683.59
2023-04-24T05:30:53.073Z,99682.59
2023-04-24T05:33:20.132Z,99685.94
2023-04-24T05:35:48.004Z,99685.75
2023-04-24T05:38:15.956Z,99696.00
2023-04-24T05:40:45.542Z,99685.72
2023-04-24T05:43:13.235Z,99696.44
2023-04-24T05:45:40.880Z,99692.66
2023-04-24T05:48:08.191Z,99690.75
2023-04-24T05:50:37.176Z,99707.31
2023-04-24T05:53:06.167Z,99703.13
2023-04-24T05:55:33.829Z,99707.13
2023-04-24T05:58:02.210Z,99699.75
2023-04-24T06:00:30.592Z,99708.16
2023-04-24T06:02:59.211Z,99712.38
2023-04-24T06:05:27.354Z,99716.75
2023-04-24T06:07:54.848Z,99719.91
2023-04-24T06:10:22.452Z,99725.09
2023-04-24T06:12:50.347Z,99728.56
2023-04-24T06:15:20.085Z,99729.72
2023-04-24T06:17:48.576Z,99731.59
2023-04-24T06:20:17.218Z,99732.91
2023-04-24T06:22:44.541Z,99724.78
2023-04-24T06:25:12.495Z,99727.28
2023-04-24T06:27:40.174Z,99727.13
2023-04-24T06:30:09.070Z,99723.16
2023-04-24T06:32:38.652Z,99731.69
2023-04-24T06:35:09.191Z,99728.31
2023-04-24T06:37:37.069Z,99733.13
2023-04-24T06:40:08.232Z,99739.19
2023-04-24T06:42:36.386Z,99739.22
2023-04-24T06:45:05.448Z,99745.09
2023-04-24T06:47:32.599Z,99745.00
2023-04-24T06:50:02.351Z,99741.81
2023-04-24T06:52:29.717Z,99754.38
2023-04-24T06:55:03.431Z,99750.88
2023-04-24T06:57:31.413Z,99757.97
2023-04-24T06:59:59.031Z,99762.06
2023-04-24T07:02:27.215Z,99762.97
2023-04-24T07:04:55.039Z,99762.50
2023-04-24T07:07:25.528Z,99762.88
2023-04-24T07:09:53.476Z,99761.78
2023-04-24T07:12:21.086Z,99764.97
2023-04-24T07:14:47.982Z,99767.00
2023-04-24T07:17:15.040Z,99758.53
2023-04-24T07:19:44.861Z,99770.72
2023-04-24T07:22:12.420Z,99766.53
2023-04-24T07:24:40.998Z,99769.59
2023-04-24T07:27:09.332Z,99763.72
2023-04-24T07:29:36.740Z,99769.16
2023-04-24T07:32:05.019Z,99768.13
2023-04-24T07:34:32.499Z,99775.19
2023-04-24T07:37:00.448Z,99768.41
2023-04-24T07:39:28.279Z,99770.94
2023-04-24T07:41:58.861Z,99773.06
2023-04-24T07:44:26.230Z,99784.84
2023-04-24T07:46:53.908Z,99783.50
2023-04-24T07:49:21.902Z,99796.22
2023-04-24T07:51:51.344Z,99798.41
2023-04-24T07:54:19.614Z,99805.38
2023-04-24T07:56:47.676Z,99808.75
2023-04-24T07:59:17.306Z,99811.63
2023-04-24T08:01:45.244Z,99813.38
2023-04-24T08:04:12.734Z,99806.44
2023-04-24T08:06:40.839Z,99800.00
2023-04-24T08:09:09.295Z,99807.56
2023-04-24T08:11:36.646Z,99816.13
2023-04-24T08:14:04.379Z,99810.53
2023-04-24T08:16:34.093Z,99811.75
2023-04-24T08:19:02.355Z,99799.88
2023-04-24T08:21:30.431Z,99802.56
2023-04-24T08:23:57.711Z,99798.97
2023-04-24T08:26:25.833Z,99797.75
2023-04-24T08:28:53.447Z,99799.28
2023-04-24T08:31:21.281Z,99803.34
2023-04-24T08:33:50.166Z,99803.91
2023-04-24T08:36:18.480Z,99798.47
2023-04-24T08:38:45.983Z,99807.88
2023-04-24T08:41:15.346Z,99802.34
2023-04-24T08:43:44.552Z,99803.84
2023-04-24T08:46:13.009Z,99801.44
2023-04-24T08:48:40.958Z,99817.16
2023-04-24T08:51:11.877Z,99820.53
2023-04-24T08:53:39.791Z,99820.13
2023-04-24T08:56:06.753Z,99821.81
2023-04-24T08:58:35.914Z,99822.03
2023-04-24T09:01:03.882Z,99823.94
2023-04-24T09:03:32.638Z,99839.97
2023-04-24T09:06:00.968Z,99836.31
2023-04-24T09:08:30.812Z,99834.53
2023-04-24T09:10:57.942Z,99834.31
2023-04-24T09:13:26.046Z,99831.66
2023-04-24T09:15:53.388Z,99829.88
2023-04-24T09:18:20.509Z,99832.66
2023-04-24T09:21:00.635Z,99843.09
2023-04-24T09:23:30.086Z,99833.53
2023-04-24T09:25:58.422Z,99842.22
2023-04-24T09:28:31.859Z,99833.97
2023-04-24T09:31:06.975Z,99832.22
2023-04-24T09:33:34.230Z,99834.97
2023-04-24T09:36:02.829Z,99843.28
2023-04-24T09:38:37.576Z,99837.19
2023-04-24T09:41:07.327Z,99844.34
2023-04-24T09:43:35.131Z,99838.44
2023-04-24T09:46:07.351Z,99848.75
2023-04-24T09:48:36.738Z,99865.25
2023-04-24T09:51:06.160Z,99856.75
2023-04-24T09:53:35.649Z,99861.72
2023-04-24T09:56:10.166Z,99851.44
2023-04-24T09:58:38.003Z,99854.97
2023-04-24T10:01:07.494Z,99853.06
2023-04-24T10:03:35.617Z,99856.16
2023-04-24T10:06:04.646Z,99854.84
2023-04-24T10:08:38.936Z,99845.25
2023-04-24T10:11:09.134Z,99852.38
2023-04-24T10:13:37.568Z,99849.47
2023-04-24T10:16:06.723Z,99845.81
2023-04-24T10:18:36.549Z,99862.72
2023-04-24T10:21:03.893Z,99867.28
2023-04-24T10:23:32.198Z,99863.28
2023-04-24T10:26:01.960Z,99878.06
2023-04-24T10:28:32.180Z,99873.25
2023-04-24T10:31:00.389Z,99874.69
2023-04-24T10:33:30.901Z,99884.22
2023-04-24T10:36:00.224Z,99882.50
2023-04-24T10:38:31.016Z,99870.94
2023-04-24T10:41:13.620Z,99868.22
2023-04-24T10:43:41.568Z,99874.16
2023-04-24T10:46:09.946Z,99882.31
2023-04-24T10:48:43.591Z,99864.53
2023-04-24T10:51:14.757Z,99860.78
2023-04-24T10:53:42.413Z,99862.97
2023-04-24T10:56:12.084Z,99869.44
2023-04-24T10:58:41.333Z,99862.81
2023-04-24T11:01:09.362Z,99863.91
2023-04-24T11:03:37.761Z,99870.75
2023-04-24T11:06:07.990Z,99854.56
2023-04-24T11:08:40.081Z,99864.94
2023-04-24T11:14:07.936Z,99867.53
2023-04-24T11:16:40.054Z,99870.84
2023-04-24T11:19:09.556Z,99863.41
2023-04-24T11:21:47.062Z,99870.66
2023-04-24T11:24:29.207Z,99866.44
2023-04-24T11:27:06.789Z,99869.91
2023-04-24T11:29:42.470Z,99873.38
2023-04-24T11:32:21.034Z,99879.56
2023-04-24T11:34:53.841Z,99893.09
2023-04-24T11:37:21.892Z,99889.91
2023-04-24T11:39:52.634Z,99897.91
2023-04-24T11:42:23.607Z,99892.03
2023-04-24T11:44:51.497Z,99889.41
2023-04-24T11:47:32.316Z,99883.03
2023-04-24T11:50:00.633Z,99887.19
2023-04-24T11:52:28.948Z,99884.16
2023-04-24T11:54:55.935Z,99888.47
2023-04-24T11:57:26.759Z,99887.97
2023-04-24T11:59:54.555Z,99893.97
2023-04-24T12:02:23.934Z,99895.53
2023-04-24T12:04:52.611Z,99899.75
2023-04-24T12:07:20.675Z,99904.50
2023-04-24T12:09:52.713Z,99901.31
2023-04-24T12:12:21.151Z,99907.91
2023-04-24T12:14:57.851Z,99904.09
2023-04-24T12:17:29.021Z,99908.47
2023-04-24T12:20:00.620Z,99902.28
2023-04-24T12:22:28.001Z,99913.97
2023-04-24T12:25:05.276Z,99910.00
2023-04-24T12:27:33.672Z,99905.44
2023-04-24T12:30:05.001Z,99910.56
2023-04-24T12:32:33.653Z,99911.69
2023-04-24T12:35:02.068Z,99908.72
2023-04-24T12:37:35.339Z,99922.22
2023-04-24T12:40:05.694Z,99922.84
2023-04-24T12:42:34.093Z,99927.38
2023-04-24T12:45:05.229Z,99923.09
2023-04-24T12:47:36.242Z,99924.50
2023-04-24T12:50:04.410Z,99922.13
2023-04-24T12:52:33.121Z,99927.63
2023-04-24T12:55:02.130Z,99925.47
2023-04-24T12:57:30.548Z,99927.38
2023-04-24T12:59:58.609Z,99917.69
2023-04-24T13:02:30.136Z,99922.47
2023-04-24T13:04:57.355Z,99923.16
2023-04-24T13:07:24.283Z,99922.94
2023-04-24T13:09:52.368Z,99931.28
2023-04-24T13:12:20.234Z,99930.16
2023-04-24T13:14:47.433Z,99926.25
2023-04-24T13:17:16.421Z,99920.53
2023-04-24T13:19:45.575Z,99927.50
2023-04-24T13:22:15.703Z,99929.84
2023-04-24T13:24:42.768Z,99920.09
2023-04-24T13:27:10.358Z,99929.44
2023-04-24T13:29:37.968Z,99930.38
2023-04-24T13:32:06.737Z,99941.03
2023-04-24T13:34:34.067Z,99930.94
2023-04-24T13:37:03.134Z,99930.09
2023-04-24T13:39:30.258Z,99933.78
2023-04-24T13:42:00.002Z,99931.28
2023-04-24T13:44:28.424Z,99927.78
2023-04-24T13:46:56.781Z,99935.53
2023-04-24T13:49:24.971Z,99942.31
2023-04-24T13:51:54.056Z,99931.66
2023-04-24T13:54:23.117Z,99937.44
2023-04-24T13:56:50.335Z,99947.34
2023-04-24T13:59:18.376Z,99936.66
2023-04-24T14:01:47.646Z,99941.44
2023-04-24T14:04:15.626Z,99939.16
2023-04-24T14:06:42.601Z,99946.53
2023-04-24T14:09:10.704Z,99946.66
2023-04-24T14:11:39.610Z,99939.53
2023-04-24T14:14:06.823Z,99944.66
2023-04-24T14:16:34.219Z,99942.72
2023-04-24T14:19:02.495Z,99950.97
2023-04-24T14:21:29.847Z,99956.81
2023-04-24T14:23:57.070Z,99951.34
2023-04-24T14:26:24.294Z,99952.78
2023-04-24T14:28:55.820Z,99948.66
2023-04-24T14:31:26.015Z,99951.03
2023-04-24T14:33:52.984Z,99949.84
2023-04-24T14:36:20.643Z,99952.97
2023-04-24T14:38:49.094Z,99960.63
2023-04-24T14:41:16.643Z,99959.78
2023-04-24T14:43:43.971Z,99953.66
2023-04-24T14:46:13.777Z,99949.97
2023-04-24T14:48:41.216Z,99956.19
2023-04-24T14:51:08.364Z,99957.88
2023-04-24T14:53:36.306Z,99962.19
2023-04-24T14:56:03.243Z,99963.81
2023-04-24T14:58:31.870Z,99961.09
2023-04-24T15:01:00.002Z,99960.91
2023-04-24T15:03:29.540Z,99951.59
2023-04-24T15:05:57.274Z,99957.63
2023-04-24T15:08:25.368Z,99962.78
2023-04-24T15:10:53.984Z,99958.41
2023-04-24T15:13:22.368Z,99965.97
2023-04-24T15:15:50.025Z,99965.34
2023-04-24T15:18:17.793Z,99960.31
2023-04-24T15:20:46.443Z,99969.78
2023-04-24T15:23:16.724Z,99977.69
2023-04-24T15:25:43.675Z,99972.94
2023-04-24T15:28:11.943Z,99984.78
2023-04-24T15:30:40.587Z,99986.28
2023-04-24T15:33:10.259Z,99979.91
2023-04-24T15:35:40.380Z,99996.91
2023-04-24T15:38:09.676Z,99989.88
2023-04-24T15:40:37.097Z,99985.44
2023-04-24T15:43:05.021Z,99992.63
2023-04-24T15:45:32.578Z,99982.50
2023-04-24T15:48:00.304Z,99989.16
2023-04-24T15:50:27.230Z,99990.84
2023-04-24T15:52:55.618Z,99984.75
2023-04-24T15:55:24.500Z,100002.09
2023-04-24T15:57:52.297Z,100001.06
2023-04-24T16:00:19.972Z,100001.44
2023-04-24T16:02:47.222Z,99999.59
2023-04-24T16:05:16.379Z,100006.19
2023-04-24T16:07:44.000Z,100002.59
2023-04-24T16:10:11.865Z,100013.44
2023-04-24T16:12:40.380Z,100011.91
2023-04-24T16:15:08.648Z,100016.19
2023-04-24T16:17:35.534Z,100026.84
2023-04-24T16:20:04.883Z,100027.53
2023-04-24T16:22:32.054Z,100029.75
2023-04-24T16:24:58.946Z,100028.72
2023-04-24T16:27:28.806Z,100034.88
2023-04-24T16:29:57.982Z,100031.19
2023-04-24T16:32:25.154Z,100034.53
2023-04-24T16:34:52.889Z,100034.84
2023-04-24T16:37:21.038Z,100041.47
2023-04-24T16:39:48.425Z,100042.38
2023-04-24T16:42:21.478Z,100036.69
2023-04-24T16:44:48.856Z,100040.88
2023-04-24T16:47:20.294Z,100043.16
2023-04-24T16:49:48.971Z,100047.16
2023-04-24T16:52:16.552Z,100057.66
2023-04-24T16:54:44.828Z,100054.75
2023-04-24T16:57:12.579Z,100055.63
2023-04-24T16:59:40.146Z,100056.06
2023-04-24T17:02:08.684Z,100050.66
2023-04-24T17:04:38.254Z,100075.25
2023-04-24T17:07:05.923Z,100076.34
2023-04-24T17:09:33.303Z,100078.03
2023-04-24T17:12:00.994Z,100074.25
2023-04-24T17:14:29.224Z,100081.00
2023-04-24T17:16:57.263Z,100083.28
2023-04-24T17:19:24.569Z,100088.13
2023-04-24T17:21:53.697Z,100089.00
2023-04-24T17:24:21.699Z,100098.84
2023-04-24T17:26:49.195Z,100108.28
2023-04-24T17:29:17.122Z,100096.56
2023-04-24T17:31:44.421Z,100099.50
2023-04-24T17:34:11.715Z,100100.34
2023-04-24T17:36:39.655Z,100107.09
2023-04-24T17:39:09.552Z,100107.06
2023-04-24T17:41:37.044Z,100100.34
2023-04-24T17:44:04.481Z,100111.25
2023-04-24T17:46:31.310Z,100112.94
2023-04-24T17:48:58.356Z,100114.00
2023-04-24T17:51:25.771Z,100118.84
2023-04-24T17:53:53.245Z,100112.09
2023-04-24T17:56:21.972Z,100127.69
2023-04-24T17:58:49.872Z,100128.09
2023-04-24T18:01:17.274Z,100126.00
2023-04-24T18:03:44.991Z,100131.06
2023-04-24T18:06:12.621Z,100132.94
2023-04-24T18:08:40.300Z,100129.38
2023-04-24T18:11:07.154Z,100137.78
2023-04-24T18:13:37.218Z,100137.75
2023-04-24T18:16:05.007Z,100138.19
2023-04-24T18:18:32.595Z,100141.75
2023-04-24T18:21:00.260Z,100144.50
2023-04-24T18:23:28.220Z,100141.31
2023-04-24T18:25:55.714Z,100151.81
2023-04-24T18:28:22.970Z,100154.34
2023-04-24T18:30:52.356Z,100159.59
2023-04-24T18:33:20.103Z,100168.19
2023-04-24T18:35:47.924Z,100172.59
2023-04-24T18:38:15.383Z,100170.84
2023-04-24T18:40:43.187Z,100180.47
2023-04-24T18:43:10.241Z,100181.38
2023-04-24T18:45:37.508Z,100191.78
2023-04-24T18:48:07.432Z,100191.78
2023-04-24T18:50:35.249Z,100190.31
2023-04-24T18:53:02.076Z,100186.09
2023-04-24T18:55:29.038Z,100194.72
2023-04-24T18:57:56.792Z,100205.47
2023-04-24T19:00:24.639Z,100210.44
2023-04-24T19:02:52.172Z,100206.06
2023-04-24T19:05:21.027Z,100212.56
2023-04-24T19:07:48.364Z,100217.31
2023-04-24T19:10:15.025Z,100221.28
2023-04-24T19:12:42.027Z,100226.56
2023-04-24T19:15:10.605Z,100231.88
2023-04-24T19:17:37.767Z,100232.38
2023-04-24T19:20:06.295Z,100228.56
2023-04-24T19:22:35.696Z,100234.03
2023-04-24T19:25:03.432Z,100239.13
2023-04-24T19:27:31.678Z,100244.03
2023-04-24T19:29:58.926Z,100244.03
2023-04-24T19:32:26.434Z,100247.34
2023-04-24T19:34:53.644Z,100252.34
2023-04-24T19:37:21.074Z,100250.66
2023-04-24T19:39:50.052Z,100261.56
2023-04-24T19:42:21.182Z,100267.97
2023-04-24T19:44:53.446Z,100261.28
2023-04-24T19:47:20.900Z,100263.63
2023-04-24T19:49:47.633Z,100272.25
2023-04-24T19:52:15.257Z,100271.63
2023-04-24T19:54:42.650Z,100268.84
2023-04-24T19:57:11.864Z,100276.50
2023-04-24T19:59:39.242Z,100266.63
2023-04-24T20:02:07.128Z,100277.53
2023-04-24T20:04:34.561Z,100279.34
2023-04-24T20:07:02.970Z,100286.44
2023-04-24T20:09:32.972Z,100288.44
2023-04-24T20:12:00.960Z,100296.34
2023-04-24T20:14:30.323Z,100291.69
2023-04-24T20:16:57.608Z,100290.84
2023-04-24T20:19:24.936Z,100294.91
2023-04-24T20:21:53.428Z,100298.72
2023-04-24T20:24:21.103Z,100302.91
2023-04-24T20:26:48.596Z,100303.63
2023-04-24T20:29:16.731Z,100306.81
2023-04-24T20:31:45.660Z,100310.88
2023-04-24T20:34:13.135Z,100312.41
2023-04-24T20:36:42.836Z,100314.63
2023-04-24T20:39:13.208Z,100317.25
2023-04-24T20:41:40.788Z,100318.84
2023-04-24T20:44:07.995Z,100323.19
2023-04-24T20:46:35.333Z,100318.97
2023-04-24T20:49:04.476Z,100322.34
2023-04-24T20:51:32.074Z,100317.28
2023-04-24T20:53:59.497Z,100323.97
2023-04-24T20:56:27.234Z,100323.31
2023-04-24T20:58:56.898Z,100330.81
2023-04-24T21:01:24.864Z,100335.78
2023-04-24T21:03:53.094Z,100337.06
2023-04-24T21:06:22.499Z,100328.34
2023-04-24T21:08:51.774Z,100340.84
2023-04-24T21:11:19.470Z,100333.53
2023-04-24T21:13:46.857Z,100344.84
2023-04-24T21:16:14.412Z,100343.88
2023-04-24T21:18:42.147Z,100357.28
2023-04-24T21:21:08.915Z,100359.47
2023-04-24T21:23:38.134Z,100368.16
2023-04-24T21:26:05.842Z,100360.66
2023-04-24T21:28:33.962Z,100366.34
2023-04-24T21:31:01.204Z,100364.28
2023-04-24T21:33:28.700Z,100369.63
2023-04-24T21:35:56.351Z,100365.56
2023-04-24T21:38:24.114Z,100377.06
2023-04-24T21:40:52.847Z,100382.09
2023-04-24T21:43:27.670Z,100379.44
2023-04-24T21:46:01.583Z,100376.94
2023-04-24T21:48:30.732Z,100389.38
2023-04-24T21:50:58.253Z,100386.72
2023-04-24T21:53:25.090Z,100393.56
2023-04-24T21:55:54.440Z,100393.56
2023-04-24T21:58:22.040Z,100397.94
2023-04-24T22:00:50.082Z,100396.38
2023-04-24T22:03:17.617Z,100395.88
2023-04-24T22:05:45.628Z,100402.03
2023-04-24T22:08:12.352Z,100396.09
2023-04-24T22:10:39.400Z,100392.50
2023-04-24T22:13:08.412Z,100394.41
2023-04-24T22:15:35.601Z,100397.94
2023-04-24T22:18:03.214Z,100404.22
2023-04-24T22:20:30.129Z,100400.81
2023-04-24T22:22:57.586Z,100408.47
2023-04-24T22:25:24.834Z,100406.97
2023-04-24T22:27:52.793Z,100408.03
2023-04-24T22:30:21.349Z,100403.53
2023-04-24T22:32:48.345Z,100400.47
2023-04-24T22:35:15.609Z,100392.69
2023-04-24T22:37:42.864Z,100397.50
2023-04-24T22:40:11.081Z,100406.31
2023-04-24T22:42:38.553Z,100398.56
2023-04-24T22:45:07.228Z,100403.31
2023-04-24T22:47:35.816Z,100398.91
2023-04-24T22:50:03.281Z,100409.72
2023-04-24T22:52:30.467Z,100408.03
2023-04-24T22:54:58.044Z,100412.44
2023-04-24T22:57:24.884Z,100416.00
2023-04-24T22:59:53.517Z,100421.59
2023-04-24T23:02:20.844Z,100423.47
2023-04-24T23:04:49.923Z,100428.72
2023-04-24T23:07:17.666Z,100426.16
2023-04-24T23:09:44.998Z,100425.50
2023-04-24T23:12:12.830Z,100433.13
2023-04-24T23:14:40.120Z,100426.50
2023-04-24T23:17:07.455Z,100417.84
2023-04-24T23:19:34.732Z,100429.72
2023-04-24T23:22:03.041Z,100420.91
2023-04-24T23:24:30.380Z,100424.47
2023-04-24T23:26:57.736Z,100426.69
2023-04-24T23:29:24.626Z,100431.75
2023-04-24T23:31:53.091Z,100423.09
2023-04-24T23:34:23.504Z,100421.56
2023-04-24T23:36:51.191Z,100428.81
2023-04-24T23:39:21.181Z,100425.94
2023-04-24T23:41:48.771Z,100433.75
2023-04-24T23:44:16.416Z,100436.09
2023-04-24T23:46:43.947Z,100442.56
2023-04-24T23:49:11.520Z,100440.16
2023-04-24T23:51:39.129Z,100445.25
2023-04-24T23:54:06.208Z,100448.16
2023-04-24T23:56:34.643Z,100447.78
2023-04-24T23:59:01.898Z,100446.22
